sensor_id;sensor_type;location;lat;lon;timestamp;P1;durP1;ratioP1;P2;durP2;ratioP2
69979;SDS011;57318;56.232;43.944;2022-07-17T00:02:04;5.68;;;3.10;;
69979;SDS011;57318;56.232;43.944;2022-07-17T00:04:30;6.30;;;3.40;;
69979;SDS011;57318;56.232;43.944;2022-07-17T00:06:56;6.77;;;3.30;;
69979;SDS011;57318;56.232;43.944;2022-07-17T00:09:21;5.73;;;3.10;;
69979;SDS011;57318;56.232;43.944;2022-07-17T00:11:47;4.33;;;3.20;;
69979;SDS011;57318;56.232;43.944;2022-07-17T00:14:13;4.13;;;2.40;;
69979;SDS011;57318;56.232;43.944;2022-07-17T00:16:38;4.70;;;2.80;;
69979;SDS011;57318;56.232;43.944;2022-07-17T00:19:04;3.37;;;2.53;;
69979;SDS011;57318;56.232;43.944;2022-07-17T00:21:29;4.93;;;2.63;;
69979;SDS011;57318;56.232;43.944;2022-07-17T00:23:55;4.67;;;2.63;;
69979;SDS011;57318;56.232;43.944;2022-07-17T00:26:21;3.97;;;2.50;;
69979;SDS011;57318;56.232;43.944;2022-07-17T00:28:46;3.73;;;2.70;;
69979;SDS011;57318;56.232;43.944;2022-07-17T00:31:12;2.97;;;2.43;;
69979;SDS011;57318;56.232;43.944;2022-07-17T00:33:38;4.53;;;2.90;;
69979;SDS011;57318;56.232;43.944;2022-07-17T00:36:03;6.50;;;3.00;;
69979;SDS011;57318;56.232;43.944;2022-07-17T00:38:29;2.80;;;2.50;;
69979;SDS011;57318;56.232;43.944;2022-07-17T00:40:55;7.33;;;2.90;;
69979;SDS011;57318;56.232;43.944;2022-07-17T00:43:22;4.30;;;2.75;;
69979;SDS011;57318;56.232;43.944;2022-07-17T00:45:56;4.85;;;2.35;;
69979;SDS011;57318;56.232;43.944;2022-07-17T00:48:23;5.63;;;2.20;;
69979;SDS011;57318;56.232;43.944;2022-07-17T00:50:48;3.75;;;2.10;;
69979;SDS011;57318;56.232;43.944;2022-07-17T00:53:14;3.43;;;2.30;;
69979;SDS011;57318;56.232;43.944;2022-07-17T00:55:40;6.00;;;2.33;;
69979;SDS011;57318;56.232;43.944;2022-07-17T00:58:06;6.15;;;2.28;;
69979;SDS011;57318;56.232;43.944;2022-07-17T01:00:34;2.72;;;2.20;;
69979;SDS011;57318;56.232;43.944;2022-07-17T01:03:00;4.57;;;2.72;;
69979;SDS011;57318;56.232;43.944;2022-07-17T01:05:26;4.30;;;2.50;;
69979;SDS011;57318;56.232;43.944;2022-07-17T01:07:52;3.78;;;2.47;;
69979;SDS011;57318;56.232;43.944;2022-07-17T01:10:18;5.20;;;2.30;;
69979;SDS011;57318;56.232;43.944;2022-07-17T01:12:44;5.35;;;2.50;;
69979;SDS011;57318;56.232;43.944;2022-07-17T01:15:11;4.82;;;2.30;;
69979;SDS011;57318;56.232;43.944;2022-07-17T01:20:04;4.63;;;2.50;;
69979;SDS011;57318;56.232;43.944;2022-07-17T01:22:31;3.30;;;2.30;;
69979;SDS011;57318;56.232;43.944;2022-07-17T01:24:57;3.97;;;2.53;;
69979;SDS011;57318;56.232;43.944;2022-07-17T01:27:23;3.33;;;2.43;;
69979;SDS011;57318;56.232;43.944;2022-07-17T01:29:49;5.37;;;2.57;;
69979;SDS011;57318;56.232;43.944;2022-07-17T01:32:14;5.47;;;2.73;;
69979;SDS011;57318;56.232;43.944;2022-07-17T01:34:40;5.00;;;2.50;;
69979;SDS011;57318;56.232;43.944;2022-07-17T01:37:05;3.40;;;2.50;;
69979;SDS011;57318;56.232;43.944;2022-07-17T01:39:31;5.03;;;3.10;;
69979;SDS011;57318;56.232;43.944;2022-07-17T01:42:15;4.22;;;2.60;;
69979;SDS011;57318;56.232;43.944;2022-07-17T01:44:41;4.87;;;2.70;;
69979;SDS011;57318;56.232;43.944;2022-07-17T01:47:07;3.97;;;2.63;;
69979;SDS011;57318;56.232;43.944;2022-07-17T01:49:32;6.30;;;3.50;;
69979;SDS011;57318;56.232;43.944;2022-07-17T01:51:58;4.33;;;3.20;;
69979;SDS011;57318;56.232;43.944;2022-07-17T01:54:28;4.40;;;3.00;;
69979;SDS011;57318;56.232;43.944;2022-07-17T01:56:55;4.13;;;3.17;;
69979;SDS011;57318;56.232;43.944;2022-07-17T01:59:20;4.77;;;3.90;;
69979;SDS011;57318;56.232;43.944;2022-07-17T02:01:46;4.60;;;3.33;;
69979;SDS011;57318;56.232;43.944;2022-07-17T02:04:12;4.22;;;3.33;;
69979;SDS011;57318;56.232;43.944;2022-07-17T02:06:38;4.20;;;3.70;;
69979;SDS011;57318;56.232;43.944;2022-07-17T02:09:03;9.63;;;4.47;;
69979;SDS011;57318;56.232;43.944;2022-07-17T02:11:29;5.13;;;4.30;;
69979;SDS011;57318;56.232;43.944;2022-07-17T02:13:55;5.93;;;4.63;;
69979;SDS011;57318;56.232;43.944;2022-07-17T02:16:20;7.17;;;5.00;;
69979;SDS011;57318;56.232;43.944;2022-07-17T02:18:46;9.07;;;5.93;;
69979;SDS011;57318;56.232;43.944;2022-07-17T02:21:12;12.40;;;6.57;;
69979;SDS011;57318;56.232;43.944;2022-07-17T02:23:37;8.13;;;6.60;;
69979;SDS011;57318;56.232;43.944;2022-07-17T02:26:03;8.00;;;6.23;;
69979;SDS011;57318;56.232;43.944;2022-07-17T02:28:29;7.28;;;6.10;;
69979;SDS011;57318;56.232;43.944;2022-07-17T02:30:54;9.73;;;4.57;;
69979;SDS011;57318;56.232;43.944;2022-07-17T02:33:20;6.60;;;4.27;;
69979;SDS011;57318;56.232;43.944;2022-07-17T02:35:46;5.03;;;3.33;;
69979;SDS011;57318;56.232;43.944;2022-07-17T02:38:11;4.50;;;3.60;;
69979;SDS011;57318;56.232;43.944;2022-07-17T02:40:37;4.80;;;3.53;;
69979;SDS011;57318;56.232;43.944;2022-07-17T02:43:03;5.73;;;3.30;;
69979;SDS011;57318;56.232;43.944;2022-07-17T02:45:28;7.87;;;3.27;;
69979;SDS011;57318;56.232;43.944;2022-07-17T02:47:54;5.47;;;3.00;;
69979;SDS011;57318;56.232;43.944;2022-07-17T02:50:20;3.77;;;2.80;;
69979;SDS011;57318;56.232;43.944;2022-07-17T02:55:14;6.00;;;2.50;;
69979;SDS011;57318;56.232;43.944;2022-07-17T02:57:41;3.60;;;2.60;;
69979;SDS011;57318;56.232;43.944;2022-07-17T03:00:08;4.13;;;2.53;;
69979;SDS011;57318;56.232;43.944;2022-07-17T03:02:36;5.47;;;2.40;;
69979;SDS011;57318;56.232;43.944;2022-07-17T03:05:03;3.28;;;2.30;;
69979;SDS011;57318;56.232;43.944;2022-07-17T03:07:29;3.35;;;2.05;;
69979;SDS011;57318;56.232;43.944;2022-07-17T03:09:55;2.40;;;2.00;;
69979;SDS011;57318;56.232;43.944;2022-07-17T03:12:20;4.73;;;2.20;;
69979;SDS011;57318;56.232;43.944;2022-07-17T03:14:46;6.07;;;2.30;;
69979;SDS011;57318;56.232;43.944;2022-07-17T03:17:12;2.30;;;2.00;;
69979;SDS011;57318;56.232;43.944;2022-07-17T03:19:37;4.90;;;2.00;;
69979;SDS011;57318;56.232;43.944;2022-07-17T03:22:03;4.07;;;2.43;;
69979;SDS011;57318;56.232;43.944;2022-07-17T03:24:30;4.38;;;2.17;;
69979;SDS011;57318;56.232;43.944;2022-07-17T03:26:56;4.97;;;2.00;;
69979;SDS011;57318;56.232;43.944;2022-07-17T03:29:22;2.72;;;2.25;;
69979;SDS011;57318;56.232;43.944;2022-07-17T03:31:47;3.33;;;2.50;;
69979;SDS011;57318;56.232;43.944;2022-07-17T03:34:13;4.00;;;2.47;;
69979;SDS011;57318;56.232;43.944;2022-07-17T03:36:39;4.87;;;2.73;;
69979;SDS011;57318;56.232;43.944;2022-07-17T03:39:04;2.77;;;2.40;;
69979;SDS011;57318;56.232;43.944;2022-07-17T03:43:56;3.08;;;2.20;;
69979;SDS011;57318;56.232;43.944;2022-07-17T03:46:22;3.67;;;2.10;;
69979;SDS011;57318;56.232;43.944;2022-07-17T03:48:48;4.27;;;2.17;;
69979;SDS011;57318;56.232;43.944;2022-07-17T03:51:13;4.35;;;2.20;;
69979;SDS011;57318;56.232;43.944;2022-07-17T03:53:39;8.30;;;2.65;;
69979;SDS011;57318;56.232;43.944;2022-07-17T03:56:05;5.07;;;2.37;;
69979;SDS011;57318;56.232;43.944;2022-07-17T03:58:31;3.97;;;2.55;;
69979;SDS011;57318;56.232;43.944;2022-07-17T04:00:58;3.78;;;2.40;;
69979;SDS011;57318;56.232;43.944;2022-07-17T04:03:23;4.30;;;2.65;;
69979;SDS011;57318;56.232;43.944;2022-07-17T04:05:49;3.83;;;2.40;;
69979;SDS011;57318;56.232;43.944;2022-07-17T04:08:15;3.47;;;2.77;;
69979;SDS011;57318;56.232;43.944;2022-07-17T04:10:41;2.67;;;2.20;;
69979;SDS011;57318;56.232;43.944;2022-07-17T04:13:07;3.78;;;2.33;;
69979;SDS011;57318;56.232;43.944;2022-07-17T04:15:33;4.43;;;2.10;;
69979;SDS011;57318;56.232;43.944;2022-07-17T04:18:21;5.63;;;2.67;;
69979;SDS011;57318;56.232;43.944;2022-07-17T04:20:48;8.82;;;3.10;;
69979;SDS011;57318;56.232;43.944;2022-07-17T04:23:15;3.97;;;2.85;;
69979;SDS011;57318;56.232;43.944;2022-07-17T04:25:41;6.20;;;3.20;;
69979;SDS011;57318;56.232;43.944;2022-07-17T04:28:09;5.78;;;3.30;;
69979;SDS011;57318;56.232;43.944;2022-07-17T04:33:01;6.35;;;4.30;;
69979;SDS011;57318;56.232;43.944;2022-07-17T04:35:26;6.50;;;4.40;;
69979;SDS011;57318;56.232;43.944;2022-07-17T04:37:52;9.60;;;3.90;;
69979;SDS011;57318;56.232;43.944;2022-07-17T04:40:18;5.17;;;3.93;;
69979;SDS011;57318;56.232;43.944;2022-07-17T04:42:44;7.95;;;4.72;;
69979;SDS011;57318;56.232;43.944;2022-07-17T04:45:10;4.43;;;3.75;;
69979;SDS011;57318;56.232;43.944;2022-07-17T04:47:36;6.23;;;4.33;;
69979;SDS011;57318;56.232;43.944;2022-07-17T04:50:02;5.43;;;4.23;;
69979;SDS011;57318;56.232;43.944;2022-07-17T04:52:29;6.20;;;3.92;;
69979;SDS011;57318;56.232;43.944;2022-07-17T04:54:54;6.30;;;3.93;;
69979;SDS011;57318;56.232;43.944;2022-07-17T04:57:20;5.53;;;3.43;;
69979;SDS011;57318;56.232;43.944;2022-07-17T04:59:46;4.73;;;3.20;;
69979;SDS011;57318;56.232;43.944;2022-07-17T05:02:11;6.97;;;3.80;;
69979;SDS011;57318;56.232;43.944;2022-07-17T05:04:37;6.37;;;4.33;;
69979;SDS011;57318;56.232;43.944;2022-07-17T05:07:02;8.97;;;4.33;;
69979;SDS011;57318;56.232;43.944;2022-07-17T05:09:28;9.80;;;5.10;;
69979;SDS011;57318;56.232;43.944;2022-07-17T05:11:54;5.67;;;5.03;;
69979;SDS011;57318;56.232;43.944;2022-07-17T05:14:19;7.23;;;5.23;;
69979;SDS011;57318;56.232;43.944;2022-07-17T05:16:45;6.97;;;5.00;;
69979;SDS011;57318;56.232;43.944;2022-07-17T05:19:10;7.37;;;4.97;;
69979;SDS011;57318;56.232;43.944;2022-07-17T05:21:36;7.20;;;5.43;;
69979;SDS011;57318;56.232;43.944;2022-07-17T05:24:02;7.80;;;5.50;;
69979;SDS011;57318;56.232;43.944;2022-07-17T05:26:28;7.88;;;5.30;;
69979;SDS011;57318;56.232;43.944;2022-07-17T05:28:53;5.60;;;5.00;;
69979;SDS011;57318;56.232;43.944;2022-07-17T05:31:19;7.47;;;4.73;;
69979;SDS011;57318;56.232;43.944;2022-07-17T05:33:44;4.80;;;4.17;;
69979;SDS011;57318;56.232;43.944;2022-07-17T05:36:10;7.47;;;4.17;;
69979;SDS011;57318;56.232;43.944;2022-07-17T05:38:36;4.87;;;4.27;;
69979;SDS011;57318;56.232;43.944;2022-07-17T05:41:02;6.85;;;4.50;;
69979;SDS011;57318;56.232;43.944;2022-07-17T05:43:29;4.85;;;4.07;;
69979;SDS011;57318;56.232;43.944;2022-07-17T05:45:55;7.13;;;4.32;;
69979;SDS011;57318;56.232;43.944;2022-07-17T05:48:22;7.18;;;4.20;;
69979;SDS011;57318;56.232;43.944;2022-07-17T05:50:48;5.57;;;4.30;;
69979;SDS011;57318;56.232;43.944;2022-07-17T05:53:14;5.97;;;4.43;;
69979;SDS011;57318;56.232;43.944;2022-07-17T05:55:40;8.77;;;4.83;;
69979;SDS011;57318;56.232;43.944;2022-07-17T05:58:06;7.75;;;4.75;;
69979;SDS011;57318;56.232;43.944;2022-07-17T06:00:32;6.10;;;4.70;;
69979;SDS011;57318;56.232;43.944;2022-07-17T06:02:58;9.68;;;5.00;;
69979;SDS011;57318;56.232;43.944;2022-07-17T06:05:24;6.88;;;5.07;;
69979;SDS011;57318;56.232;43.944;2022-07-17T06:07:51;7.53;;;4.65;;
69979;SDS011;57318;56.232;43.944;2022-07-17T06:10:17;5.13;;;4.63;;
69979;SDS011;57318;56.232;43.944;2022-07-17T06:12:42;6.40;;;4.90;;
69979;SDS011;57318;56.232;43.944;2022-07-17T06:15:08;6.88;;;4.90;;
69979;SDS011;57318;56.232;43.944;2022-07-17T06:20:00;8.25;;;4.95;;
69979;SDS011;57318;56.232;43.944;2022-07-17T06:22:26;4.82;;;4.40;;
69979;SDS011;57318;56.232;43.944;2022-07-17T06:24:52;6.75;;;4.90;;
69979;SDS011;57318;56.232;43.944;2022-07-17T06:27:18;9.60;;;4.87;;
69979;SDS011;57318;56.232;43.944;2022-07-17T06:29:43;5.67;;;4.17;;
69979;SDS011;57318;56.232;43.944;2022-07-17T06:32:11;8.50;;;4.57;;
69979;SDS011;57318;56.232;43.944;2022-07-17T06:34:37;7.90;;;4.90;;
69979;SDS011;57318;56.232;43.944;2022-07-17T06:37:03;8.18;;;4.90;;
69979;SDS011;57318;56.232;43.944;2022-07-17T06:39:28;7.60;;;4.73;;
69979;SDS011;57318;56.232;43.944;2022-07-17T06:41:54;8.47;;;4.87;;
69979;SDS011;57318;56.232;43.944;2022-07-17T06:44:20;5.83;;;4.57;;
69979;SDS011;57318;56.232;43.944;2022-07-17T06:46:45;6.20;;;4.97;;
69979;SDS011;57318;56.232;43.944;2022-07-17T06:49:11;6.60;;;4.10;;
69979;SDS011;57318;56.232;43.944;2022-07-17T06:51:36;4.77;;;4.27;;
69979;SDS011;57318;56.232;43.944;2022-07-17T06:54:02;6.73;;;4.40;;
69979;SDS011;57318;56.232;43.944;2022-07-17T06:56:28;4.93;;;4.50;;
69979;SDS011;57318;56.232;43.944;2022-07-17T06:58:53;7.03;;;4.37;;
69979;SDS011;57318;56.232;43.944;2022-07-17T07:01:19;5.40;;;4.45;;
69979;SDS011;57318;56.232;43.944;2022-07-17T07:03:45;4.50;;;3.95;;
69979;SDS011;57318;56.232;43.944;2022-07-17T07:06:11;4.80;;;3.50;;
69979;SDS011;57318;56.232;43.944;2022-07-17T07:11:02;6.80;;;3.67;;
69979;SDS011;57318;56.232;43.944;2022-07-17T07:15:53;4.43;;;3.63;;
69979;SDS011;57318;56.232;43.944;2022-07-17T07:20:44;6.28;;;3.40;;
69979;SDS011;57318;56.232;43.944;2022-07-17T07:25:35;6.88;;;3.65;;
69979;SDS011;57318;56.232;43.944;2022-07-17T07:30:27;3.95;;;3.47;;
69979;SDS011;57318;56.232;43.944;2022-07-17T07:32:53;4.57;;;3.45;;
69979;SDS011;57318;56.232;43.944;2022-07-17T07:35:18;5.95;;;3.10;;
69979;SDS011;57318;56.232;43.944;2022-07-17T07:37:44;3.80;;;2.90;;
69979;SDS011;57318;56.232;43.944;2022-07-17T07:40:10;3.50;;;2.70;;
69979;SDS011;57318;56.232;43.944;2022-07-17T07:42:36;2.92;;;2.70;;
69979;SDS011;57318;56.232;43.944;2022-07-17T07:45:02;3.33;;;2.70;;
69979;SDS011;57318;56.232;43.944;2022-07-17T07:47:29;3.95;;;2.80;;
69979;SDS011;57318;56.232;43.944;2022-07-17T07:49:54;3.55;;;2.55;;
69979;SDS011;57318;56.232;43.944;2022-07-17T07:52:20;4.45;;;2.67;;
69979;SDS011;57318;56.232;43.944;2022-07-17T07:54:45;4.32;;;2.88;;
69979;SDS011;57318;56.232;43.944;2022-07-17T07:57:11;3.13;;;2.72;;
69979;SDS011;57318;56.232;43.944;2022-07-17T07:59:37;3.78;;;2.88;;
69979;SDS011;57318;56.232;43.944;2022-07-17T08:02:03;3.67;;;2.63;;
69979;SDS011;57318;56.232;43.944;2022-07-17T08:04:29;7.50;;;2.83;;
69979;SDS011;57318;56.232;43.944;2022-07-17T08:06:55;6.28;;;2.85;;
69979;SDS011;57318;56.232;43.944;2022-07-17T08:09:21;4.28;;;2.80;;
69979;SDS011;57318;56.232;43.944;2022-07-17T08:11:47;5.70;;;3.30;;
69979;SDS011;57318;56.232;43.944;2022-07-17T08:14:13;6.13;;;2.85;;
69979;SDS011;57318;56.232;43.944;2022-07-17T08:16:38;2.80;;;2.60;;
69979;SDS011;57318;56.232;43.944;2022-07-17T08:19:04;4.43;;;2.95;;
69979;SDS011;57318;56.232;43.944;2022-07-17T08:21:30;4.65;;;2.63;;
69979;SDS011;57318;56.232;43.944;2022-07-17T08:23:55;3.15;;;2.38;;
69979;SDS011;57318;56.232;43.944;2022-07-17T08:26:21;3.40;;;2.58;;
69979;SDS011;57318;56.232;43.944;2022-07-17T08:28:46;3.00;;;2.30;;
69979;SDS011;57318;56.232;43.944;2022-07-17T08:31:12;4.57;;;2.20;;
69979;SDS011;57318;56.232;43.944;2022-07-17T08:33:38;4.30;;;2.40;;
69979;SDS011;57318;56.232;43.944;2022-07-17T08:36:04;3.72;;;2.30;;
69979;SDS011;57318;56.232;43.944;2022-07-17T08:38:29;3.97;;;2.20;;
69979;SDS011;57318;56.232;43.944;2022-07-17T08:40:55;3.72;;;2.20;;
69979;SDS011;57318;56.232;43.944;2022-07-17T08:43:23;4.55;;;2.55;;
69979;SDS011;57318;56.232;43.944;2022-07-17T08:45:49;4.60;;;2.60;;
69979;SDS011;57318;56.232;43.944;2022-07-17T08:48:16;4.40;;;2.42;;
69979;SDS011;57318;56.232;43.944;2022-07-17T08:50:43;2.70;;;2.45;;
69979;SDS011;57318;56.232;43.944;2022-07-17T08:53:09;3.20;;;2.70;;
69979;SDS011;57318;56.232;43.944;2022-07-17T08:55:36;3.72;;;2.50;;
69979;SDS011;57318;56.232;43.944;2022-07-17T08:58:02;2.55;;;2.35;;
69979;SDS011;57318;56.232;43.944;2022-07-17T09:00:29;3.40;;;2.72;;
69979;SDS011;57318;56.232;43.944;2022-07-17T09:05:38;2.80;;;2.50;;
69979;SDS011;57318;56.232;43.944;2022-07-17T09:08:06;3.20;;;2.40;;
69979;SDS011;57318;56.232;43.944;2022-07-17T09:10:35;5.03;;;2.75;;
69979;SDS011;57318;56.232;43.944;2022-07-17T09:13:21;3.15;;;2.40;;
69979;SDS011;57318;56.232;43.944;2022-07-17T09:15:53;3.05;;;2.47;;
69979;SDS011;57318;56.232;43.944;2022-07-17T09:18:21;3.28;;;2.47;;
69979;SDS011;57318;56.232;43.944;2022-07-17T09:20:48;2.78;;;2.47;;
69979;SDS011;57318;56.232;43.944;2022-07-17T09:23:14;3.50;;;2.65;;
69979;SDS011;57318;56.232;43.944;2022-07-17T09:25:41;3.28;;;2.38;;
69979;SDS011;57318;56.232;43.944;2022-07-17T09:28:09;6.47;;;2.75;;
69979;SDS011;57318;56.232;43.944;2022-07-17T09:30:39;3.83;;;2.47;;
69979;SDS011;57318;56.232;43.944;2022-07-17T09:33:17;2.63;;;2.42;;
69979;SDS011;57318;56.232;43.944;2022-07-17T09:35:53;4.13;;;2.30;;
69979;SDS011;57318;56.232;43.944;2022-07-17T09:38:34;2.90;;;2.50;;
69979;SDS011;57318;56.232;43.944;2022-07-17T09:41:11;5.20;;;2.45;;
69979;SDS011;57318;56.232;43.944;2022-07-17T09:43:43;3.45;;;2.35;;
69979;SDS011;57318;56.232;43.944;2022-07-17T09:46:17;4.35;;;2.30;;
69979;SDS011;57318;56.232;43.944;2022-07-17T09:48:52;3.10;;;2.50;;
69979;SDS011;57318;56.232;43.944;2022-07-17T09:51:21;5.45;;;2.17;;
69979;SDS011;57318;56.232;43.944;2022-07-17T09:53:49;2.88;;;2.58;;
69979;SDS011;57318;56.232;43.944;2022-07-17T09:56:17;4.43;;;2.25;;
69979;SDS011;57318;56.232;43.944;2022-07-17T09:58:46;2.45;;;2.25;;
69979;SDS011;57318;56.232;43.944;2022-07-17T10:01:17;2.72;;;2.33;;
69979;SDS011;57318;56.232;43.944;2022-07-17T10:03:43;3.17;;;2.40;;
69979;SDS011;57318;56.232;43.944;2022-07-17T10:06:10;3.05;;;2.80;;
69979;SDS011;57318;56.232;43.944;2022-07-17T10:08:37;3.28;;;2.30;;
69979;SDS011;57318;56.232;43.944;2022-07-17T10:11:07;4.07;;;1.95;;
69979;SDS011;57318;56.232;43.944;2022-07-17T10:13:41;3.67;;;2.50;;
69979;SDS011;57318;56.232;43.944;2022-07-17T10:16:09;3.38;;;2.47;;
69979;SDS011;57318;56.232;43.944;2022-07-17T10:18:40;5.38;;;2.20;;
69979;SDS011;57318;56.232;43.944;2022-07-17T10:21:15;2.38;;;2.17;;
69979;SDS011;57318;56.232;43.944;2022-07-17T10:28:58;2.88;;;2.58;;
69979;SDS011;57318;56.232;43.944;2022-07-17T10:31:25;3.40;;;2.47;;
69979;SDS011;57318;56.232;43.944;2022-07-17T10:33:56;3.65;;;2.92;;
69979;SDS011;57318;56.232;43.944;2022-07-17T10:36:33;4.85;;;3.25;;
69979;SDS011;57318;56.232;43.944;2022-07-17T10:39:13;3.40;;;3.10;;
69979;SDS011;57318;56.232;43.944;2022-07-17T10:41:54;3.47;;;3.00;;
69979;SDS011;57318;56.232;43.944;2022-07-17T10:44:28;4.60;;;3.13;;
69979;SDS011;57318;56.232;43.944;2022-07-17T10:46:55;6.47;;;3.25;;
69979;SDS011;57318;56.232;43.944;2022-07-17T10:49:22;5.22;;;3.00;;
69979;SDS011;57318;56.232;43.944;2022-07-17T10:51:48;4.43;;;3.10;;
69979;SDS011;57318;56.232;43.944;2022-07-17T10:54:16;3.25;;;2.67;;
69979;SDS011;57318;56.232;43.944;2022-07-17T10:56:43;5.90;;;2.85;;
69979;SDS011;57318;56.232;43.944;2022-07-17T10:59:11;4.22;;;2.88;;
69979;SDS011;57318;56.232;43.944;2022-07-17T11:01:37;3.45;;;2.80;;
69979;SDS011;57318;56.232;43.944;2022-07-17T11:04:03;5.70;;;3.40;;
69979;SDS011;57318;56.232;43.944;2022-07-17T11:06:34;2.97;;;2.70;;
69979;SDS011;57318;56.232;43.944;2022-07-17T11:16:34;4.18;;;3.10;;
69979;SDS011;57318;56.232;43.944;2022-07-17T11:18:59;3.75;;;2.80;;
69979;SDS011;57318;56.232;43.944;2022-07-17T11:21:25;4.07;;;2.75;;
69979;SDS011;57318;56.232;43.944;2022-07-17T11:23:52;2.75;;;2.53;;
69979;SDS011;57318;56.232;43.944;2022-07-17T11:26:19;3.65;;;3.10;;
69979;SDS011;57318;56.232;43.944;2022-07-17T11:28:45;3.50;;;2.83;;
69979;SDS011;57318;56.232;43.944;2022-07-17T11:31:20;4.25;;;2.55;;
69979;SDS011;57318;56.232;43.944;2022-07-17T11:34:03;6.50;;;3.55;;
69979;SDS011;57318;56.232;43.944;2022-07-17T11:36:35;6.22;;;3.70;;
69979;SDS011;57318;56.232;43.944;2022-07-17T11:41:41;3.95;;;3.55;;
69979;SDS011;57318;56.232;43.944;2022-07-17T11:44:10;3.70;;;3.40;;
69979;SDS011;57318;56.232;43.944;2022-07-17T11:46:38;3.70;;;3.05;;
69979;SDS011;57318;56.232;43.944;2022-07-17T11:49:05;4.45;;;3.00;;
69979;SDS011;57318;56.232;43.944;2022-07-17T11:51:39;6.78;;;3.15;;
69979;SDS011;57318;56.232;43.944;2022-07-17T11:54:08;3.92;;;2.42;;
69979;SDS011;57318;56.232;43.944;2022-07-17T11:56:37;2.80;;;2.60;;
69979;SDS011;57318;56.232;43.944;2022-07-17T11:59:04;3.17;;;2.75;;
69979;SDS011;57318;56.232;43.944;2022-07-17T12:01:49;3.42;;;2.72;;
69979;SDS011;57318;56.232;43.944;2022-07-17T12:04:14;5.65;;;3.40;;
69979;SDS011;57318;56.232;43.944;2022-07-17T12:06:40;5.95;;;2.90;;
69979;SDS011;57318;56.232;43.944;2022-07-17T12:09:06;3.75;;;3.40;;
69979;SDS011;57318;56.232;43.944;2022-07-17T12:11:33;4.95;;;2.75;;
69979;SDS011;57318;56.232;43.944;2022-07-17T12:14:10;3.50;;;3.20;;
69979;SDS011;57318;56.232;43.944;2022-07-17T12:16:36;6.32;;;3.70;;
69979;SDS011;57318;56.232;43.944;2022-07-17T12:19:09;4.25;;;3.10;;
69979;SDS011;57318;56.232;43.944;2022-07-17T12:22:12;3.65;;;3.20;;
69979;SDS011;57318;56.232;43.944;2022-07-17T12:24:41;3.28;;;2.90;;
69979;SDS011;57318;56.232;43.944;2022-07-17T12:27:10;3.72;;;2.58;;
69979;SDS011;57318;56.232;43.944;2022-07-17T12:29:37;3.75;;;2.88;;
69979;SDS011;57318;56.232;43.944;2022-07-17T12:32:24;3.92;;;2.75;;
69979;SDS011;57318;56.232;43.944;2022-07-17T12:34:49;6.07;;;3.20;;
69979;SDS011;57318;56.232;43.944;2022-07-17T12:37:15;3.60;;;2.78;;
69979;SDS011;57318;56.232;43.944;2022-07-17T12:39:43;5.35;;;2.58;;
69979;SDS011;57318;56.232;43.944;2022-07-17T12:42:10;2.70;;;2.50;;
69979;SDS011;57318;56.232;43.944;2022-07-17T12:44:36;2.60;;;2.40;;
69979;SDS011;57318;56.232;43.944;2022-07-17T12:47:02;4.90;;;2.70;;
69979;SDS011;57318;56.232;43.944;2022-07-17T12:49:28;2.20;;;2.10;;
69979;SDS011;57318;56.232;43.944;2022-07-17T12:51:55;2.40;;;2.20;;
69979;SDS011;57318;56.232;43.944;2022-07-17T12:54:21;6.25;;;2.42;;
69979;SDS011;57318;56.232;43.944;2022-07-17T12:56:46;4.82;;;2.30;;
69979;SDS011;57318;56.232;43.944;2022-07-17T12:59:12;3.65;;;2.58;;
69979;SDS011;57318;56.232;43.944;2022-07-17T13:01:38;3.53;;;2.53;;
69979;SDS011;57318;56.232;43.944;2022-07-17T13:04:05;2.83;;;2.53;;
69979;SDS011;57318;56.232;43.944;2022-07-17T13:06:30;3.45;;;2.38;;
69979;SDS011;57318;56.232;43.944;2022-07-17T13:08:58;4.03;;;2.53;;
69979;SDS011;57318;56.232;43.944;2022-07-17T13:11:24;2.72;;;2.42;;
69979;SDS011;57318;56.232;43.944;2022-07-17T13:13:50;2.80;;;2.47;;
69979;SDS011;57318;56.232;43.944;2022-07-17T13:16:15;3.47;;;2.75;;
69979;SDS011;57318;56.232;43.944;2022-07-17T13:18:42;4.18;;;2.40;;
69979;SDS011;57318;56.232;43.944;2022-07-17T13:21:08;2.50;;;2.30;;
69979;SDS011;57318;56.232;43.944;2022-07-17T13:23:35;3.42;;;2.47;;
69979;SDS011;57318;56.232;43.944;2022-07-17T13:26:01;2.22;;;2.10;;
69979;SDS011;57318;56.232;43.944;2022-07-17T13:28:28;3.25;;;2.40;;
69979;SDS011;57318;56.232;43.944;2022-07-17T13:30:54;3.33;;;2.28;;
69979;SDS011;57318;56.232;43.944;2022-07-17T13:33:21;2.60;;;2.20;;
69979;SDS011;57318;56.232;43.944;2022-07-17T13:36:02;3.72;;;2.22;;
69979;SDS011;57318;56.232;43.944;2022-07-17T13:38:28;3.10;;;2.28;;
69979;SDS011;57318;56.232;43.944;2022-07-17T13:40:53;3.33;;;2.10;;
69979;SDS011;57318;56.232;43.944;2022-07-17T13:43:19;2.50;;;2.30;;
69979;SDS011;57318;56.232;43.944;2022-07-17T13:45:45;8.02;;;2.70;;
69979;SDS011;57318;56.232;43.944;2022-07-17T13:48:11;3.58;;;2.60;;
69979;SDS011;57318;56.232;43.944;2022-07-17T13:53:02;5.97;;;2.88;;
69979;SDS011;57318;56.232;43.944;2022-07-17T13:55:28;3.72;;;2.60;;
69979;SDS011;57318;56.232;43.944;2022-07-17T13:57:54;4.40;;;2.70;;
69979;SDS011;57318;56.232;43.944;2022-07-17T14:00:19;5.68;;;3.10;;
69979;SDS011;57318;56.232;43.944;2022-07-17T14:02:45;3.17;;;2.53;;
69979;SDS011;57318;56.232;43.944;2022-07-17T14:05:13;2.83;;;2.40;;
69979;SDS011;57318;56.232;43.944;2022-07-17T14:07:41;4.07;;;2.70;;
69979;SDS011;57318;56.232;43.944;2022-07-17T14:10:08;3.38;;;2.50;;
69979;SDS011;57318;56.232;43.944;2022-07-17T14:12:36;6.32;;;2.83;;
69979;SDS011;57318;56.232;43.944;2022-07-17T14:15:02;4.47;;;2.70;;
69979;SDS011;57318;56.232;43.944;2022-07-17T14:17:28;6.13;;;3.05;;
69979;SDS011;57318;56.232;43.944;2022-07-17T14:19:54;4.53;;;2.55;;
69979;SDS011;57318;56.232;43.944;2022-07-17T14:22:20;3.50;;;2.35;;
69979;SDS011;57318;56.232;43.944;2022-07-17T14:24:46;5.68;;;2.58;;
69979;SDS011;57318;56.232;43.944;2022-07-17T14:27:11;3.35;;;2.60;;
69979;SDS011;57318;56.232;43.944;2022-07-17T14:29:37;4.00;;;2.90;;
69979;SDS011;57318;56.232;43.944;2022-07-17T14:32:03;2.85;;;2.40;;
69979;SDS011;57318;56.232;43.944;2022-07-17T14:34:29;4.88;;;2.85;;
69979;SDS011;57318;56.232;43.944;2022-07-17T14:36:54;3.55;;;3.10;;
69979;SDS011;57318;56.232;43.944;2022-07-17T14:39:20;5.93;;;3.28;;
69979;SDS011;57318;56.232;43.944;2022-07-17T14:41:46;6.30;;;2.88;;
69979;SDS011;57318;56.232;43.944;2022-07-17T14:44:12;6.63;;;3.13;;
69979;SDS011;57318;56.232;43.944;2022-07-17T14:46:41;8.32;;;2.95;;
69979;SDS011;57318;56.232;43.944;2022-07-17T14:49:06;7.80;;;2.83;;
69979;SDS011;57318;56.232;43.944;2022-07-17T14:51:32;6.65;;;2.92;;
69979;SDS011;57318;56.232;43.944;2022-07-17T14:53:58;6.47;;;3.08;;
69979;SDS011;57318;56.232;43.944;2022-07-17T14:56:23;5.38;;;2.60;;
69979;SDS011;57318;56.232;43.944;2022-07-17T14:58:51;7.07;;;3.10;;
69979;SDS011;57318;56.232;43.944;2022-07-17T15:01:20;5.35;;;3.10;;
69979;SDS011;57318;56.232;43.944;2022-07-17T15:03:45;7.30;;;3.20;;
69979;SDS011;57318;56.232;43.944;2022-07-17T15:06:11;4.18;;;3.30;;
69979;SDS011;57318;56.232;43.944;2022-07-17T15:08:39;5.50;;;3.67;;
69979;SDS011;57318;56.232;43.944;2022-07-17T15:11:05;6.28;;;3.50;;
69979;SDS011;57318;56.232;43.944;2022-07-17T15:13:31;6.65;;;2.92;;
69979;SDS011;57318;56.232;43.944;2022-07-17T15:15:56;3.15;;;2.85;;
69979;SDS011;57318;56.232;43.944;2022-07-17T15:18:22;5.50;;;3.60;;